Terminal Aerodrome Forecast
Issued by NWS Twin Cities, MN

Home | Current Version | Previous Version | Graphics & Text | Print | Product List | Glossary On
Versions: 1 2 3 4 5 6 7 8 9 10 11 12 13 14
000
FTUS43 KMPX 272338
TAFSTC
TAF
KSTC 272338Z 2800/2824 21007KT P6SM SKC
     FM280200 18004KT P6SM SKC
     FM281500 17008KT P6SM SCT250
     FM281800 17011G16KT P6SM SCT040 BKN070=

USA.gov is the U.S. government's official web portal to all federal, state and local government web resources and services.